Observation data for Northfield on 01/21/2019      Previous  Date  Next       Current Mesonet Observations  Soil Data  Daily Summary Page  Observations in Plain Language
KNOR 210600Z 09005KT 02/M02 A30 RMK A01 T00211021  RH  074%=      5-min Rain = 0
KNOR 210605Z 10005KT 02/M02 A30 RMK A01 T00181021  RH  076%=      5-min Rain = 0
KNOR 210610Z 11006KT 02/M02 A2999 RMK A01 T00191021  RH  076%=      5-min Rain = 0
KNOR 210615Z 12006KT 02/M02 A2999 RMK A01 T00191020  RH  076%=      5-min Rain = 0
KNOR 210620Z 11007KT 02/M02 A2999 RMK A01 T00221018  RH  076%=      5-min Rain = 0
KNOR 210625Z 10007KT 02/M02 A2999 RMK A01 T00241017  RH  075%=      5-min Rain = 0
KNOR 210630Z 10006KT 02/M02 A2999 RMK A01 T00241017  RH  075%=      5-min Rain = 0
KNOR 210635Z 10007KT 02/M02 A2999 RMK A01 T00201019  RH  076%=      5-min Rain = 0
KNOR 210640Z 09006KT 02/M02 A2999 RMK A01 T00181020  RH  077%=      5-min Rain = 0
KNOR 210645Z 08005KT 02/M02 A30 RMK A01 T00161020  RH  078%=      5-min Rain = 0
KNOR 210650Z 08006KT 01/M02 A30 RMK A01 T00121022  RH  079%=      5-min Rain = 0
KNOR 210655Z 10008KT 01/M02 A2999 RMK A01 T00111022  RH  079%=      5-min Rain = 0
KNOR 210700Z 11008KT 01/M02 A2999 RMK A01 T00131020  RH  079%=      5-min Rain = 0
KNOR 210705Z 10007KT 01/M02 A2999 RMK A01 T00131021  RH  079%=      5-min Rain = 0
KNOR 210710Z 10008KT 01/M02 A2998 RMK A01 T00101022  RH  079%=      5-min Rain = 0
KNOR 210715Z 10008KT 01/M02 A2998 RMK A01 T00121020  RH  080%=      5-min Rain = 0
KNOR 210720Z 11008KT 01/M02 A2998 RMK A01 T00131019  RH  080%=      5-min Rain = 0
KNOR 210725Z 11008KT 01/M02 A2997 RMK A01 T00131019  RH  080%=      5-min Rain = 0
KNOR 210730Z 12008KT 01/M02 A2997 RMK A01 T00141017  RH  080%=      5-min Rain = 0
KNOR 210735Z 12007KT 02/M02 A2997 RMK A01 T00181015  RH  079%=      5-min Rain = 0
KNOR 210740Z 13008KT 02/M02 A2997 RMK A01 T00201015  RH  078%=      5-min Rain = 0
KNOR 210745Z 13008KT 02/M01 A2997 RMK A01 T00211014  RH  078%=      5-min Rain = 0
KNOR 210750Z 13007KT 03/M01 A2997 RMK A01 T00251011  RH  078%=      5-min Rain = 0
KNOR 210755Z 13008KT 03/M01 A2996 RMK A01 T00271010  RH  077%=      5-min Rain = 0
KNOR 210800Z 13008KT 03/M01 A2996 RMK A01 T00271010  RH  077%=      5-min Rain = 0
KNOR 210805Z 13007KT 03/M01 A2996 RMK A01 T00281010  RH  077%=      5-min Rain = 0
KNOR 210810Z 13006KT 03/M01 A2996 RMK A01 T00271010  RH  077%=      5-min Rain = 0
KNOR 210815Z 13007KT 03/M01 A2996 RMK A01 T00261010  RH  078%=      5-min Rain = 0
KNOR 210820Z 13007KT 03/M01 A2995 RMK A01 T00251010  RH  078%=      5-min Rain = 0
KNOR 210825Z 13007KT 03/M01 A2995 RMK A01 T00251010  RH  078%=      5-min Rain = 0
KNOR 210830Z 13006KT 02/M01 A2995 RMK A01 T00231011  RH  079%=      5-min Rain = 0
KNOR 210835Z 14007KT 02/M01 A2995 RMK A01 T00231011  RH  079%=      5-min Rain = 0
KNOR 210840Z 14007KT 03/M01 A2995 RMK A01 T00261010  RH  078%=      5-min Rain = 0
KNOR 210845Z 14007KT 03/M01 A2995 RMK A01 T00271010  RH  077%=      5-min Rain = 0
KNOR 210850Z 14007KT 03/M01 A2994 RMK A01 T00251011  RH  078%=      5-min Rain = 0
KNOR 210855Z 14007KT 03/M01 A2994 RMK A01 T00251011  RH  078%=      5-min Rain = 0
KNOR 210900Z 14007KT 03/M01 A2994 RMK A01 T00261011  RH  077%=      5-min Rain = 0
KNOR 210905Z 14006KT 03/M01 A2994 RMK A01 T00261012  RH  077%=      5-min Rain = 0
KNOR 210910Z 14006KT 03/M01 A2994 RMK A01 T00261012  RH  077%=      5-min Rain = 0
KNOR 210915Z 14006KT 03/M01 A2993 RMK A01 T00271012  RH  076%=      5-min Rain = 0
KNOR 210920Z 14005KT 03/M01 A2993 RMK A01 T00261013  RH  076%=      5-min Rain = 0
KNOR 210925Z 15006KT 02/M01 A2993 RMK A01 T00221014  RH  078%=      5-min Rain = 0
KNOR 210930Z 16006KT 02/M01 A2993 RMK A01 T00231013  RH  078%=      5-min Rain = 0
KNOR 210935Z 16007KT 02/M01 A2992 RMK A01 T00241013  RH  077%=      5-min Rain = 0
KNOR 210940Z 16007KT 02/M01 A2992 RMK A01 T00241013  RH  077%=      5-min Rain = 0
KNOR 210945Z 16006KT 03/M01 A2992 RMK A01 T00251013  RH  077%=      5-min Rain = 0
KNOR 210950Z 16006KT 03/M01 A2992 RMK A01 T00251013  RH  076%=      5-min Rain = 0
KNOR 210955Z 15006KT 03/M01 A2992 RMK A01 T00251014  RH  076%=      5-min Rain = 0
KNOR 211000Z 15006KT 02/M01 A2992 RMK A01 T00241014  RH  077%=      5-min Rain = 0
KNOR 211005Z 15003KT 02/M02 A2992 RMK A01 T00241016  RH  076%=      5-min Rain = 0
KNOR 211010Z 11002KT 02/M02 A2992 RMK A01 T00151019  RH  079%=      5-min Rain = 0
KNOR 211015Z 12003KT 02/M02 A2992 RMK A01 T00171017  RH  079%=      5-min Rain = 0
KNOR 211020Z 11003KT 01/M02 A2992 RMK A01 T00131020  RH  079%=      5-min Rain = 0
KNOR 211025Z 12004KT 01/M02 A2991 RMK A01 T00121019  RH  081%=      5-min Rain = 0
KNOR 211030Z 14005KT 01/M02 A2991 RMK A01 T00131018  RH  080%=      5-min Rain = 0
KNOR 211035Z 14006KT 02/M02 A299 RMK A01 T00151017  RH  080%=      5-min Rain = 0
KNOR 211040Z 14006KT 01/M02 A299 RMK A01 T00131018  RH  080%=      5-min Rain = 0
KNOR 211045Z 16006KT 02/M02 A299 RMK A01 T00151017  RH  080%=      5-min Rain = 0
KNOR 211050Z 17007KT 02/M02 A299 RMK A01 T00181018  RH  078%=      5-min Rain = 0
KNOR 211055Z 17007KT 02/M02 A299 RMK A01 T00201017  RH  077%=      5-min Rain = 0
KNOR 211100Z 16006KT 03/M02 A299 RMK A01 T00251016  RH  075%=      5-min Rain = 0
KNOR 211105Z 17005KT 02/M02 A299 RMK A01 T00211016  RH  077%=      5-min Rain = 0
KNOR 211110Z 18004KT 02/M02 A299 RMK A01 T00181016  RH  079%=      5-min Rain = 0
KNOR 211115Z 17006KT 02/M01 A2989 RMK A01 T00211014  RH  079%=      5-min Rain = 0
KNOR 211120Z 17007KT 02/M01 A2989 RMK A01 T00231013  RH  078%=      5-min Rain = 0
KNOR 211125Z 17007KT 02/M01 A2989 RMK A01 T00241013  RH  077%=      5-min Rain = 0
KNOR 211130Z 17008KT 02/M01 A2989 RMK A01 T00241013  RH  077%=      5-min Rain = 0
KNOR 211135Z 17009KT 03/M01 A2989 RMK A01 T00281011  RH  076%=      5-min Rain = 0
KNOR 211140Z 17009KT 03/M01 A2989 RMK A01 T00311011  RH  075%=      5-min Rain = 0
KNOR 211145Z 17009KT 03/M01 A2988 RMK A01 T00341010  RH  074%=      5-min Rain = 0
KNOR 211150Z 17009KT 04/M01 A2989 RMK A01 T00371010  RH  072%=      5-min Rain = 0
KNOR 211155Z 18009KT 04/M01 A2989 RMK A01 T00391010  RH  071%=      5-min Rain = 0
KNOR 211200Z 18010KT 04/M01 A2989 RMK A01 T00411010  RH  070%=      5-min Rain = 0
KNOR 211205Z 18009KT 04/M01 A2989 RMK A01 T00431010  RH  069%=      5-min Rain = 0
KNOR 211210Z 18008KT 04/M01 A2989 RMK A01 T00441011  RH  068%=      5-min Rain = 0
KNOR 211215Z 18008KT 04/M01 A2989 RMK A01 T00411012  RH  069%=      5-min Rain = 0
KNOR 211220Z 18008KT 04/M01 A2989 RMK A01 T00411012  RH  069%=      5-min Rain = 0
KNOR 211225Z 18007KT 04/M01 A2989 RMK A01 T00401012  RH  069%=      5-min Rain = 0
KNOR 211230Z 17006KT 04/M01 A2989 RMK A01 T00371014  RH  070%=      5-min Rain = 0
KNOR 211235Z 17005KT 03/M02 A2989 RMK A01 T00341015  RH  071%=      5-min Rain = 0
KNOR 211240Z 17005KT 03/M02 A2989 RMK A01 T00341015  RH  071%=      5-min Rain = 0
KNOR 211245Z 18004KT 04/M02 A299 RMK A01 T00351015  RH  071%=      5-min Rain = 0
KNOR 211250Z 18004KT 04/M02 A299 RMK A01 T00351015  RH  071%=      5-min Rain = 0
KNOR 211255Z 18004KT 04/M02 A299 RMK A01 T00351015  RH  070%=      5-min Rain = 0
KNOR 211300Z 18005KT 03/M02 A299 RMK A01 T00341015  RH  071%=      5-min Rain = 0
KNOR 211305Z 18006KT 03/M02 A299 RMK A01 T00311015  RH  072%=      5-min Rain = 0
KNOR 211310Z 18006KT 03/M02 A299 RMK A01 T00251018  RH  074%=      5-min Rain = 0
KNOR 211315Z 17007KT 02/M02 A2989 RMK A01 T00241017  RH  075%=      5-min Rain = 0
KNOR 211320Z 18006KT 02/M02 A2988 RMK A01 T00241017  RH  075%=      5-min Rain = 0
KNOR 211325Z 18006KT 02/M02 A2988 RMK A01 T00221017  RH  076%=      5-min Rain = 0
KNOR 211330Z 17006KT 02/M02 A2987 RMK A01 T00221017  RH  076%=      5-min Rain = 0
KNOR 211335Z 17007KT 02/M02 A2987 RMK A01 T00221016  RH  077%=      5-min Rain = 0
KNOR 211340Z 18008KT 03/M01 A2987 RMK A01 T00261013  RH  076%=      5-min Rain = 0
KNOR 211345Z 18008KT 03/M01 A2988 RMK A01 T00321011  RH  074%=      5-min Rain = 0
KNOR 211350Z 18008KT 03/M01 A2988 RMK A01 T00311012  RH  074%=      5-min Rain = 0
KNOR 211355Z 18009KT 03/M01 A2988 RMK A01 T00311012  RH  074%=      5-min Rain = 0
KNOR 211400Z 18009KT 03/M01 A2988 RMK A01 T00321012  RH  074%=      5-min Rain = 0
KNOR 211405Z 17009KT 03/M01 A2987 RMK A01 T00321012  RH  073%=      5-min Rain = 0
KNOR 211410Z 17008KT 03/M01 A2987 RMK A01 T00331012  RH  073%=      5-min Rain = 0
KNOR 211415Z 17008KT 03/M01 A2987 RMK A01 T00331012  RH  073%=      5-min Rain = 0
KNOR 211420Z 18007KT 03/M01 A2987 RMK A01 T00341012  RH  073%=      5-min Rain = 0
KNOR 211425Z 19006KT 03/M01 A2987 RMK A01 T00341011  RH  073%=      5-min Rain = 0
KNOR 211430Z 25004KT 03/M01 A2988 RMK A01 T00311011  RH  074%=      5-min Rain = 0
KNOR 211435Z 25006KT 03/M01 A2988 RMK A01 T00301010  RH  076%=      5-min Rain = 0
KNOR 211440Z 24006KT 04/M01 A2989 RMK A01 T00351009  RH  074%=      5-min Rain = 0
KNOR 211445Z 27003KT 03/M01 A2989 RMK A01 T00311012  RH  074%=      5-min Rain = 0
KNOR 211450Z 23004KT 03/M01 A2989 RMK A01 T00281012  RH  076%=      5-min Rain = 0
KNOR 211455Z 19005KT 04/M01 A2988 RMK A01 T00391007  RH  073%=      5-min Rain = 0
KNOR 211500Z 18007KT 05/M01 A2988 RMK A01 T00501005  RH  068%=      5-min Rain = 0
KNOR 211505Z 17009KT 06/M00 A2987 RMK A01 T00591004  RH  065%=      5-min Rain = 0
KNOR 211510Z 17009KT 06/M00 A2987 RMK A01 T00631004  RH  063%=      5-min Rain = 0
KNOR 211515Z 17010KT 06/M01 A2986 RMK A01 T00641005  RH  062%=      5-min Rain = 0
KNOR 211520Z 17011KT 07/M01 A2986 RMK A01 T00671005  RH  061%=      5-min Rain = 0
KNOR 211525Z 17012KT 07/M01 A2985 RMK A01 T00731005  RH  058%=      5-min Rain = 0
KNOR 211530Z 17011KT 08/M01 A2984 RMK A01 T00771005  RH  057%=      5-min Rain = 0
KNOR 211535Z 18011KT 08/M00 A2984 RMK A01 T00801004  RH  056%=      5-min Rain = 0
KNOR 211540Z 18013G18KT 08/M01 A2984 RMK A01 T00801006  RH  055%=      5-min Rain = 0
KNOR 211545Z 18013G18KT 08/M00 A2984 RMK A01 T00831004  RH  055%=      5-min Rain = 0
KNOR 211550Z 18015G20KT 09/M01 A2984 RMK A01 T00851005  RH  054%=      5-min Rain = 0
KNOR 211555Z 18014G20KT 09/M00 A2983 RMK A01 T00851004  RH  054%=      5-min Rain = 0
KNOR 211600Z 18014G19KT 09/M00 A2984 RMK A01 T00891004  RH  053%=      5-min Rain = 0
KNOR 211605Z 19012G19KT 10/M00 A2984 RMK A01 T00951004  RH  050%=      5-min Rain = 0
KNOR 211610Z 20010KT 10/M00 A2984 RMK A01 T00951004  RH  051%=      5-min Rain = 0
KNOR 211615Z 19011KT 10/M01 A2984 RMK A01 T01001005  RH  049%=      5-min Rain = 0
KNOR 211620Z 19011KT 10/M01 A2984 RMK A01 T01041007  RH  047%=      5-min Rain = 0
KNOR 211625Z 19010KT 11/M01 A2984 RMK A01 T01071009  RH  045%=      5-min Rain = 0
KNOR 211630Z 20010KT 11/M01 A2984 RMK A01 T01111010  RH  043%=      5-min Rain = 0
KNOR 211635Z 20009KT 12/M01 A2984 RMK A01 T01231008  RH  041%=      5-min Rain = 0
KNOR 211640Z 21010G15KT 13/M01 A2984 RMK A01 T01291010  RH  039%=      5-min Rain = 0
KNOR 211645Z 21011G16KT 14/M01 A2984 RMK A01 T01351012  RH  037%=      5-min Rain = 0
KNOR 211650Z 20015KT 13/M02 A2983 RMK A01 T01341016  RH  036%=      5-min Rain = 0
KNOR 211655Z 20015G21KT 14/M02 A2982 RMK A01 T01381015  RH  035%=      5-min Rain = 0
KNOR 211700Z 20015KT 13/M02 A2982 RMK A01 T01331016  RH  036%=      5-min Rain = 0
KNOR 211705Z 19015G20KT 14/M02 A2982 RMK A01 T01371015  RH  035%=      5-min Rain = 0
KNOR 211710Z 20014G19KT 14/M02 A2982 RMK A01 T01391016  RH  035%=      5-min Rain = 0
KNOR 211715Z 19015G20KT 14/M02 A2981 RMK A01 T01401017  RH  034%=      5-min Rain = 0
KNOR 211720Z 20015G20KT 15/M02 A2981 RMK A01 T01471016  RH  033%=      5-min Rain = 0
KNOR 211725Z 20016G22KT 15/M02 A298 RMK A01 T01511017  RH  032%=      5-min Rain = 0
KNOR 211730Z 19016G22KT 15/M02 A298 RMK A01 T01521019  RH  031%=      5-min Rain = 0
KNOR 211735Z 20016G21KT 16/M02 A298 RMK A01 T01591019  RH  030%=      5-min Rain = 0
KNOR 211740Z 20014G19KT 16/M02 A298 RMK A01 T01631019  RH  029%=      5-min Rain = 0
KNOR 211745Z 20016KT 16/M02 A2979 RMK A01 T01601021  RH  029%=      5-min Rain = 0
KNOR 211750Z 20015G20KT 16/M02 A2979 RMK A01 T01611020  RH  029%=      5-min Rain = 0
KNOR 211755Z 19015G21KT 16/M02 A2979 RMK A01 T01571021  RH  030%=      5-min Rain = 0
KNOR 211800Z 20014G20KT 16/M02 A2979 RMK A01 T01611020  RH  029%=      5-min Rain = 0
KNOR 211805Z 19014G20KT 17/M02 A2979 RMK A01 T01671020  RH  028%=      5-min Rain = 0
KNOR 211810Z 20015G22KT 18/M02 A2979 RMK A01 T01751021  RH  026%=      5-min Rain = 0
KNOR 211815Z 20013G18KT 18/M02 A2978 RMK A01 T01781020  RH  026%=      5-min Rain = 0
KNOR 211820Z 20015G21KT 18/M02 A2978 RMK A01 T01781022  RH  026%=      5-min Rain = 0
KNOR 211825Z 20017G23KT 18/M02 A2977 RMK A01 T01791023  RH  025%=      5-min Rain = 0
KNOR 211830Z 20016G22KT 18/M02 A2977 RMK A01 T01811024  RH  025%=      5-min Rain = 0
KNOR 211835Z 20017G22KT 19/M02 A2977 RMK A01 T01861024  RH  024%=      5-min Rain = 0
KNOR 211840Z 20016G21KT 19/M02 A2977 RMK A01 T01861024  RH  024%=      5-min Rain = 0
KNOR 211845Z 20014G20KT 19/M02 A2977 RMK A01 T01871024  RH  024%=      5-min Rain = 0
KNOR 211850Z 19015G20KT 19/M03 A2976 RMK A01 T01881025  RH  024%=      5-min Rain = 0
KNOR 211855Z 19015G21KT 19/M03 A2976 RMK A01 T01921025  RH  023%=      5-min Rain = 0
KNOR 211900Z 19015G21KT 19/M03 A2975 RMK A01 T01881026  RH  023%=      5-min Rain = 0
KNOR 211905Z 19015KT 19/M03 A2975 RMK A01 T01861026  RH  024%=      5-min Rain = 0
KNOR 211910Z 19016G21KT 19/M03 A2974 RMK A01 T01911025  RH  023%=      5-min Rain = 0
KNOR 211915Z 20015G21KT 20/M03 A2974 RMK A01 T01981026  RH  022%=      5-min Rain = 0
KNOR 211920Z 20016KT 20/M03 A2974 RMK A01 T02001026  RH  022%=      5-min Rain = 0
KNOR 211925Z 20014G22KT 20/M03 A2974 RMK A01 T02011026  RH  022%=      5-min Rain = 0
KNOR 211930Z 19013G19KT 20/M02 A2973 RMK A01 T02011024  RH  022%=      5-min Rain = 0
KNOR 211935Z 19013G18KT 20/M02 A2973 RMK A01 T01971024  RH  022%=      5-min Rain = 0
KNOR 211940Z 19013G18KT 19/M03 A2973 RMK A01 T01941025  RH  023%=      5-min Rain = 0
KNOR 211945Z 19014G19KT 20/M03 A2973 RMK A01 T01971026  RH  022%=      5-min Rain = 0
KNOR 211950Z 19014KT 20/M03 A2973 RMK A01 T01981026  RH  022%=      5-min Rain = 0
KNOR 211955Z 18016G22KT 20/M03 A2972 RMK A01 T01961025  RH  022%=      5-min Rain = 0
KNOR 212000Z 19018G23KT 20/M03 A2972 RMK A01 T01961026  RH  022%=      5-min Rain = 0
KNOR 212005Z 19015G22KT 20/M03 A2972 RMK A01 T02021026  RH  022%=      5-min Rain = 0
KNOR 212010Z 19015G20KT 21/M03 A2971 RMK A01 T02071025  RH  021%=      5-min Rain = 0
KNOR 212015Z 19016G23KT 21/M03 A2971 RMK A01 T02081025  RH  021%=      5-min Rain = 0
KNOR 212020Z 18017G22KT 20/M03 A2971 RMK A01 T02031026  RH  021%=      5-min Rain = 0
KNOR 212025Z 18016G21KT 20/M03 A297 RMK A01 T02001027  RH  022%=      5-min Rain = 0
KNOR 212030Z 19015KT 21/M03 A297 RMK A01 T02051026  RH  021%=      5-min Rain = 0
KNOR 212035Z 19014G19KT 20/M03 A297 RMK A01 T02041026  RH  021%=      5-min Rain = 0
KNOR 212040Z 19014KT 21/M03 A297 RMK A01 T02051025  RH  021%=      5-min Rain = 0
KNOR 212045Z 19017G22KT 21/M03 A2969 RMK A01 T02111026  RH  020%=      5-min Rain = 0
KNOR 212050Z 19014G21KT 22/M03 A2969 RMK A01 T02171026  RH  020%=      5-min Rain = 0
KNOR 212055Z 18015G21KT 22/M03 A2968 RMK A01 T02191026  RH  019%=      5-min Rain = 0
KNOR 212100Z 19013G20KT 23/M03 A2968 RMK A01 T02261025  RH  019%=      5-min Rain = 0
KNOR 212105Z 18014G21KT 22/M03 A2967 RMK A01 T02161028  RH  019%=      5-min Rain = 0
KNOR 212110Z 19016G22KT 22/M03 A2967 RMK A01 T02201028  RH  019%=      5-min Rain = 0
KNOR 212115Z 19018G24KT 23/M03 A2967 RMK A01 T02251030  RH  018%=      5-min Rain = 0
KNOR 212120Z 18019G26KT 22/M03 A2966 RMK A01 T02231032  RH  018%=      5-min Rain = 0
KNOR 212125Z 19018G25KT 22/M03 A2966 RMK A01 T02181032  RH  019%=      5-min Rain = 0
KNOR 212130Z 19018G25KT 22/M03 A2965 RMK A01 T02241031  RH  018%=      5-min Rain = 0
KNOR 212135Z 19020G26KT 22/M03 A2965 RMK A01 T02211030  RH  018%=      5-min Rain = 0
KNOR 212140Z 19017G25KT 22/M03 A2965 RMK A01 T02211030  RH  018%=      5-min Rain = 0
KNOR 212145Z 19019G27KT 22/M03 A2965 RMK A01 T02221031  RH  018%=      5-min Rain = 0
KNOR 212150Z 18019G25KT 22/M03 A2964 RMK A01 T02191031  RH  019%=      5-min Rain = 0
KNOR 212155Z 18018G25KT 22/M03 A2964 RMK A01 T02181029  RH  019%=      5-min Rain = 0
KNOR 212200Z 18017G23KT 21/M03 A2964 RMK A01 T02131028  RH  020%=      5-min Rain = 0
KNOR 212205Z 19015G22KT 22/M03 A2964 RMK A01 T02171026  RH  020%=      5-min Rain = 0
KNOR 212210Z 19017G23KT 22/M03 A2964 RMK A01 T02191027  RH  019%=      5-min Rain = 0
KNOR 212215Z 19017G24KT 22/M03 A2964 RMK A01 T02211028  RH  019%=      5-min Rain = 0
KNOR 212220Z 19019G25KT 22/M03 A2964 RMK A01 T02201032  RH  018%=      5-min Rain = 0
KNOR 212225Z 18014G19KT 22/M03 A2964 RMK A01 T02181030  RH  019%=      5-min Rain = 0
KNOR 212230Z 18016G21KT 22/M03 A2964 RMK A01 T02171027  RH  019%=      5-min Rain = 0
KNOR 212235Z 18016G22KT 22/M03 A2963 RMK A01 T02161026  RH  020%=      5-min Rain = 0
KNOR 212240Z 18015G25KT 22/M02 A2963 RMK A01 T02151024  RH  020%=      5-min Rain = 0
KNOR 212245Z 18016G24KT 22/M03 A2963 RMK A01 T02151026  RH  020%=      5-min Rain = 0
KNOR 212250Z 18017G23KT 22/M03 A2963 RMK A01 T02151027  RH  020%=      5-min Rain = 0
KNOR 212255Z 18016G21KT 21/M03 A2963 RMK A01 T02141027  RH  020%=      5-min Rain = 0
KNOR 212300Z 18014KT 21/M03 A2963 RMK A01 T02121027  RH  020%=      5-min Rain = 0
KNOR 212305Z 18013G19KT 21/M03 A2963 RMK A01 T02111028  RH  020%=      5-min Rain = 0
KNOR 212310Z 18013KT 21/M03 A2963 RMK A01 T02081026  RH  021%=      5-min Rain = 0
KNOR 212315Z 18014G19KT 21/M02 A2963 RMK A01 T02071024  RH  021%=      5-min Rain = 0
KNOR 212320Z 18015KT 21/M02 A2963 RMK A01 T02051022  RH  022%=      5-min Rain = 0
KNOR 212325Z 18014G19KT 20/M02 A2963 RMK A01 T02021020  RH  022%=      5-min Rain = 0
KNOR 212330Z 18015G20KT 20/M02 A2962 RMK A01 T02011018  RH  023%=      5-min Rain = 0
KNOR 212335Z 17016G21KT 20/M02 A2962 RMK A01 T01991017  RH  023%=      5-min Rain = 0
KNOR 212340Z 17015G20KT 20/M02 A2962 RMK A01 T01971016  RH  024%=      5-min Rain = 0
KNOR 212345Z 17014KT 19/M02 A2962 RMK A01 T01941016  RH  024%=      5-min Rain = 0
KNOR 212350Z 17017G24KT 19/M02 A2962 RMK A01 T01941016  RH  024%=      5-min Rain = 0
KNOR 212355Z 17015G21KT 19/M02 A2962 RMK A01 T01921015  RH  025%=      5-min Rain = 0
KNOR 220000Z 17014G20KT 19/M01 A2962 RMK A01 T01861012  RH  026%=      5-min Rain = 0
KNOR 220005Z 17016KT 19/M01 A2962 RMK A01 T01851010  RH  027%=      5-min Rain = 0
KNOR 220010Z 17017G22KT 19/M01 A2961 RMK A01 T01851009  RH  027%=      5-min Rain = 0
KNOR 220015Z 17018KT 19/M01 A2961 RMK A01 T01851009  RH  027%=      5-min Rain = 0
KNOR 220020Z 17018G23KT 18/M01 A2961 RMK A01 T01831008  RH  028%=      5-min Rain = 0
KNOR 220025Z 17018G24KT 18/M01 A2961 RMK A01 T01801008  RH  028%=      5-min Rain = 0
KNOR 220030Z 16019G25KT 18/M01 A2961 RMK A01 T01811008  RH  028%=      5-min Rain = 0
KNOR 220035Z 16016G22KT 18/M01 A2961 RMK A01 T01771008  RH  029%=      5-min Rain = 0
KNOR 220040Z 17018G24KT 18/M01 A2961 RMK A01 T01771007  RH  029%=      5-min Rain = 0
KNOR 220045Z 16017G22KT 18/M01 A2961 RMK A01 T01771007  RH  029%=      5-min Rain = 0
KNOR 220050Z 16016G23KT 18/M01 A2962 RMK A01 T01761007  RH  029%=      5-min Rain = 0
KNOR 220055Z 16015KT 17/M01 A2962 RMK A01 T01741006  RH  030%=      5-min Rain = 0
KNOR 220100Z 16016G22KT 17/M01 A2962 RMK A01 T01711005  RH  031%=      5-min Rain = 0
KNOR 220105Z 16018G23KT 17/M00 A2962 RMK A01 T01711004  RH  031%=      5-min Rain = 0
KNOR 220110Z 17018KT 17/M00 A2962 RMK A01 T01701003  RH  031%=      5-min Rain = 0
KNOR 220115Z 17017G22KT 17/M00 A2962 RMK A01 T01691003  RH  031%=      5-min Rain = 0
KNOR 220120Z 17016G22KT 17/M00 A2962 RMK A01 T01691003  RH  031%=      5-min Rain = 0
KNOR 220125Z 17018KT 17/M00 A2962 RMK A01 T01671003  RH  032%=      5-min Rain = 0
KNOR 220130Z 17018G24KT 17/M00 A2962 RMK A01 T01661002  RH  032%=      5-min Rain = 0
KNOR 220135Z 16018G23KT 16/M00 A2962 RMK A01 T01641001  RH  033%=      5-min Rain = 0
KNOR 220140Z 16018KT 16/00 A2962 RMK A01 T01630001  RH  034%=      5-min Rain = 0
KNOR 220145Z 16018G24KT 16/00 A2962 RMK A01 T01610001  RH  034%=      5-min Rain = 0
KNOR 220150Z 16018KT 16/00 A2962 RMK A01 T01600001  RH  034%=      5-min Rain = 0
KNOR 220155Z 16017G22KT 16/00 A2962 RMK A01 T01590002  RH  035%=      5-min Rain = 0
KNOR 220200Z 16020G25KT 16/00 A2962 RMK A01 T01580002  RH  035%=      5-min Rain = 0
KNOR 220205Z 17022G30KT 16/00 A2962 RMK A01 T01580002  RH  035%=      5-min Rain = 0
KNOR 220210Z 16019G25KT 16/00 A2962 RMK A01 T01570002  RH  035%=      5-min Rain = 0
KNOR 220215Z 17019G24KT 16/00 A2962 RMK A01 T01560002  RH  035%=      5-min Rain = 0
KNOR 220220Z 17017G23KT 16/00 A2962 RMK A01 T01550002  RH  035%=      5-min Rain = 0
KNOR 220225Z 17017G24KT 16/00 A2962 RMK A01 T01550001  RH  035%=      5-min Rain = 0
KNOR 220230Z 17020G28KT 16/00 A2962 RMK A01 T01570001  RH  035%=      5-min Rain = 0
KNOR 220235Z 17018G26KT 16/00 A2962 RMK A01 T01550001  RH  036%=      5-min Rain = 0
KNOR 220240Z 17018G24KT 15/00 A2962 RMK A01 T01510002  RH  036%=      5-min Rain = 0
KNOR 220245Z 17018G26KT 15/00 A2962 RMK A01 T01510002  RH  036%=      5-min Rain = 0
KNOR 220250Z 17020KT 15/00 A2962 RMK A01 T01530001  RH  036%=      5-min Rain = 0
KNOR 220255Z 17020G26KT 15/00 A2961 RMK A01 T01540001  RH  036%=      5-min Rain = 0
KNOR 220300Z 17021G29KT 16/00 A2961 RMK A01 T01560001  RH  035%=      5-min Rain = 0
KNOR 220305Z 18023G32KT 16/00 A296 RMK A01 T01560001  RH  035%=      5-min Rain = 0
KNOR 220310Z 18025G32KT 16/00 A296 RMK A01 T01570001  RH  035%=      5-min Rain = 0
KNOR 220315Z 18024G34KT 16/00 A296 RMK A01 T01570001  RH  035%=      5-min Rain = 0
KNOR 220320Z 18026G34KT 16/00 A296 RMK A01 T01580001  RH  035%=      5-min Rain = 0
KNOR 220325Z 18025G34KT 16/00 A296 RMK A01 T01580002  RH  035%=      5-min Rain = 0
KNOR 220330Z 18024G31KT 16/00 A296 RMK A01 T01570002  RH  035%=      5-min Rain = 0
KNOR 220335Z 18022G30KT 16/00 A296 RMK A01 T01550002  RH  036%=      5-min Rain = 0
KNOR 220340Z 18025G33KT 16/00 A296 RMK A01 T01550002  RH  036%=      5-min Rain = 0
KNOR 220345Z 18023G32KT 15/00 A296 RMK A01 T01540003  RH  036%=      5-min Rain = 0
KNOR 220350Z 18025G35KT 15/00 A296 RMK A01 T01540003  RH  036%=      5-min Rain = 0
KNOR 220355Z 18026G38KT 15/00 A296 RMK A01 T01530003  RH  036%=      5-min Rain = 0
KNOR 220400Z 18025G33KT 15/00 A296 RMK A01 T01520003  RH  037%=      5-min Rain = 0
KNOR 220405Z 18025G36KT 15/00 A2959 RMK A01 T01510003  RH  037%=      5-min Rain = 0
KNOR 220410Z 18027G37KT 15/00 A2959 RMK A01 T01510004  RH  037%=      5-min Rain = 0
KNOR 220415Z 19025G35KT 15/00 A296 RMK A01 T01500004  RH  037%=      5-min Rain = 0
KNOR 220420Z 18024G31KT 15/00 A2959 RMK A01 T01480004  RH  038%=      5-min Rain = 0
KNOR 220425Z 18024G36KT 15/00 A2959 RMK A01 T01480004  RH  038%=      5-min Rain = 0
KNOR 220430Z 19024G32KT 15/01 A296 RMK A01 T01460005  RH  038%=      5-min Rain = 0
KNOR 220435Z 18021G27KT 15/01 A296 RMK A01 T01450005  RH  039%=      5-min Rain = 0
KNOR 220440Z 19021G26KT 14/01 A296 RMK A01 T01440005  RH  039%=      5-min Rain = 0
KNOR 220445Z 19022G32KT 14/01 A296 RMK A01 T01430006  RH  040%=      5-min Rain = 0
KNOR 220450Z 19022G32KT 14/01 A296 RMK A01 T01430007  RH  040%=      5-min Rain = 0
KNOR 220455Z 19024G34KT 14/01 A296 RMK A01 T01430007  RH  040%=      5-min Rain = 0
KNOR 220500Z 19023G35KT 14/01 A296 RMK A01 T01430008  RH  040%=      5-min Rain = 0
KNOR 220505Z 19022G31KT 14/01 A296 RMK A01 T01420009  RH  041%=      5-min Rain = 0
KNOR 220510Z 19024G35KT 14/01 A296 RMK A01 T01420011  RH  041%=      5-min Rain = 0
KNOR 220515Z 19024G32KT 14/01 A296 RMK A01 T01420012  RH  042%=      5-min Rain = 0
KNOR 220520Z 19023G33KT 14/01 A296 RMK A01 T01410014  RH  043%=      5-min Rain = 0
KNOR 220525Z 19024G34KT 14/02 A2959 RMK A01 T01410017  RH  043%=      5-min Rain = 0
KNOR 220530Z 19026G35KT 14/02 A296 RMK A01 T01410019  RH  044%=      5-min Rain = 0
KNOR 220535Z 19024G35KT 14/02 A2959 RMK A01 T01400021  RH  045%=      5-min Rain = 0
KNOR 220540Z 19024G32KT 14/02 A2959 RMK A01 T01400023  RH  046%=      5-min Rain = 0
KNOR 220545Z 20025G32KT 14/03 A296 RMK A01 T01400026  RH  047%=      5-min Rain = 0
KNOR 220550Z 20024G31KT 14/03 A296 RMK A01 T01390028  RH  048%=      5-min Rain = 0
KNOR 220555Z 19023G34KT 14/03 A2959 RMK A01 T01380029  RH  049%=      5-min Rain = 0

Page generated in 0.019 seconds.